Lähistön asemien METAR-raportit

 

EFJY - Jyvaskyla (mil/C, Finland
Etäisyys Sääasemalta: E 40km
Päivitetty: 23/05/2019 18:50
Heikkoa sadetta, Kuurottaisia sateita, Pilvistä
Heikkoa sadetta, Kuurottaisia sateita, Pilvistä
 Tuulen suunta EKa
Tuuli: EKa 4 km/h
Lämpötila: 8°C
Kastepiste: 5°C
Ilmankosteus: 82%
Ilmanpaine: 1013 hPa
Yhteenveto: Heikkoa sadetta, Kuurottaisia sateita
Pilvisyys: Pilvistä
Näkyvyys: 10 km
Pilvisyystiedot: Pilvistä 1372 m
2019/05/23 18:50 EFJY 231850Z AUTO 16002KT 9999 -SHRA OVC045 08/05 Q1013
EFKU - Kuopio (mil/Civ), Finland
Etäisyys Sääasemalta: IKo 106km
Päivitetty: 23/05/2019 18:50
Selkeätä
Selkeätä
 Tuulen suunta IKo
Tuuli: IKo 11 km/h
Lämpötila: 7°C
Tuulen purevuus: 5°C
Kastepiste: 0°C
Ilmankosteus: 61%
Ilmanpaine: 1015 hPa
Yhteenveto: Selkeätä
Näkyvyys: Enemmän Kuin 10 km
2019/05/23 18:50 EFKU 231850Z AUTO 07006KT 040V110 CAVOK 07/00 Q1015
EFHA - Halli (fin-Afb), Finland
Etäisyys Sääasemalta: ELo 113km
Päivitetty: 23/05/2019 18:50
Selkeätä
Selkeätä
 Tuulen suunta IKo
Tuuli: IKo 15 km/h
Lämpötila: 9°C
Tuulen purevuus: 7°C
Kastepiste: 5°C
Ilmankosteus: 76%
Ilmanpaine: 1013 hPa
Yhteenveto: Selkeätä
Näkyvyys: Enemmän Kuin 10 km
2019/05/23 18:50 EFHA 231850Z AUTO 07008KT CAVOK 09/05 Q1013
 
EFMI - Mikkeli, Finland
Etäisyys Sääasemalta: EKa 140km
Päivitetty: 23/05/2019 18:50
Selkeätä
Selkeätä
 Tuulen suunta I
Tuuli: I 7 km/h
Lämpötila: 9°C
Tuulen purevuus: 8°C
Kastepiste: 1°C
Ilmankosteus: 58%
Ilmanpaine: 1014 hPa
Yhteenveto: Selkeätä
Näkyvyys: Enemmän Kuin 10 km
2019/05/23 18:50 EFMI 231850Z AUTO 08004KT 030V130 CAVOK 09/01 Q1014
EFSI - Seinajoki-Ilmajo, Finland
Etäisyys Sääasemalta: L 150km
Päivitetty: 23/05/2019 18:50
Heikkoa sadetta, Pilvistä
Heikkoa sadetta, Pilvistä
 Tuulen suunta I
Tuuli: I 11 km/h
Lämpötila: 8°C
Tuulen purevuus: 6°C
Kastepiste: 7°C
Ilmankosteus: 93%
Ilmanpaine: 1012 hPa
Yhteenveto: Light Rain
Pilvisyys: Pilvistä
Näkyvyys: 10 km
Pilvisyystiedot: Joitain Pilviä 853 m
Pilvistä 1036 m
2019/05/23 18:50 EFSI 231850Z AUTO 09006KT 9999 -RA FEW028 OVC034 08/07 Q1012
EFKK - Kruunupyy, Finland
Etäisyys Sääasemalta: Lu 170km
Päivitetty: 23/05/2019 18:50
Heikkoa sadetta, Puolipilvistä
Heikkoa sadetta, Puolipilvistä
 Tuulen suunta IKa
Tuuli: IKa 4 km/h
Lämpötila: 8°C
Kastepiste: 6°C
Ilmankosteus: 87%
Ilmanpaine: 1013 hPa
Yhteenveto: Light Rain
Pilvisyys: Puolipilvistä
Näkyvyys: 10 km
2019/05/23 18:50 EFKK 231850Z AUTO 11002KT 9999 -RA NSC 08/06 Q1013
 
EFSA - Savonlinna (aut), Finland
Etäisyys Sääasemalta: IKa 186km
Päivitetty: 23/05/2019 18:50
Selkeätä
Selkeätä
 Tuulen suunta PKo
Tuuli: PKo 7 km/h
Lämpötila: 8°C
Tuulen purevuus: 7°C
Kastepiste: 0°C
Ilmankosteus: 57%
Ilmanpaine: 1015 hPa
Yhteenveto: Selkeätä
Näkyvyys: Enemmän Kuin 10 km
2019/05/23 18:50 EFSA 231850Z AUTO 03004KT 350V070 CAVOK 08/00 Q1015
EFTP - Tampere/Pirkkala, Finland
Etäisyys Sääasemalta: Lo 187km
Päivitetty: 23/05/2019 18:50
Lähistöllä Sadekuuroja, Pilvistä
Lähistöllä Sadekuuroja, Pilvistä
 Tuulen suunta I
Tuuli: I 11 km/h
Lämpötila: 11°C
Kastepiste: 7°C
Ilmankosteus: 77%
Ilmanpaine: 1012 hPa
Yhteenveto: Lähistöllä Sadekuuroja
Pilvisyys: Pilvistä
Näkyvyys: 10 km
Pilvisyystiedot: Pilvistä 1006 m
2019/05/23 18:50 EFTP 231850Z AUTO 08006KT 9999 VCSH OVC033 11/07 Q1012
EFKI - Kajaani, Finland
Etäisyys Sääasemalta: PKo 192km
Päivitetty: 23/05/2019 18:50
Selkeätä
Selkeätä
 Tuulen suunta IKa
Tuuli: IKa 6 km/h
Lämpötila: 5°C
Kastepiste: -2°C
Ilmankosteus: 61%
Ilmanpaine: 1015 hPa
Yhteenveto: Selkeätä
Näkyvyys: Enemmän Kuin 10 km
2019/05/23 18:50 EFKI 231850Z AUTO 11003KT CAVOK 05/M02 Q1015
 
EFJO - Joensuu, Finland
Etäisyys Sääasemalta: I 196km
Päivitetty: 23/05/2019 18:20
Selkeätä
Selkeätä
 Tuulen suunta Ko
Tuuli: Ko 6 km/h
Lämpötila: 6°C
Kastepiste: -1°C
Ilmankosteus: 61%
Ilmanpaine: 1015 hPa
Yhteenveto: Selkeätä
Näkyvyys: Enemmän Kuin 10 km
2019/05/23 18:20 EFJO 231820Z 04003KT CAVOK 06/M01 Q1015